sensor_id;sensor_type;location;lat;lon;timestamp;P1;durP1;ratioP1;P2;durP2;ratioP2
3321;SDS011;1673;51.388;7.086;2023-07-09T00:00:11;11.43;;;5.20;;
3321;SDS011;1673;51.388;7.086;2023-07-09T00:02:44;10.32;;;5.00;;
3321;SDS011;1673;51.388;7.086;2023-07-09T00:05:15;9.75;;;4.75;;
3321;SDS011;1673;51.388;7.086;2023-07-09T00:07:46;11.00;;;5.10;;
3321;SDS011;1673;51.388;7.086;2023-07-09T00:10:17;10.93;;;4.90;;
3321;SDS011;1673;51.388;7.086;2023-07-09T00:12:50;11.98;;;5.00;;
3321;SDS011;1673;51.388;7.086;2023-07-09T00:15:20;10.35;;;5.40;;
3321;SDS011;1673;51.388;7.086;2023-07-09T00:17:51;12.20;;;5.28;;
3321;SDS011;1673;51.388;7.086;2023-07-09T00:20:21;12.80;;;4.50;;
3321;SDS011;1673;51.388;7.086;2023-07-09T00:22:51;11.80;;;5.10;;
3321;SDS011;1673;51.388;7.086;2023-07-09T00:25:21;11.10;;;4.80;;
3321;SDS011;1673;51.388;7.086;2023-07-09T00:27:54;15.10;;;5.38;;
3321;SDS011;1673;51.388;7.086;2023-07-09T00:30:24;11.60;;;5.13;;
3321;SDS011;1673;51.388;7.086;2023-07-09T00:32:54;14.52;;;5.50;;
3321;SDS011;1673;51.388;7.086;2023-07-09T00:35:24;11.57;;;5.00;;
3321;SDS011;1673;51.388;7.086;2023-07-09T00:37:54;10.63;;;5.15;;
3321;SDS011;1673;51.388;7.086;2023-07-09T00:40:27;10.30;;;4.68;;
3321;SDS011;1673;51.388;7.086;2023-07-09T00:43:01;12.88;;;5.63;;
3321;SDS011;1673;51.388;7.086;2023-07-09T00:45:30;12.63;;;5.20;;
3321;SDS011;1673;51.388;7.086;2023-07-09T00:48:03;12.30;;;4.97;;
3321;SDS011;1673;51.388;7.086;2023-07-09T00:50:36;13.65;;;5.35;;
3321;SDS011;1673;51.388;7.086;2023-07-09T00:53:10;12.07;;;5.28;;
3321;SDS011;1673;51.388;7.086;2023-07-09T00:55:45;12.88;;;5.10;;
3321;SDS011;1673;51.388;7.086;2023-07-09T00:58:23;13.37;;;5.10;;
3321;SDS011;1673;51.388;7.086;2023-07-09T01:00:55;13.07;;;5.30;;
3321;SDS011;1673;51.388;7.086;2023-07-09T01:03:31;10.75;;;5.00;;
3321;SDS011;1673;51.388;7.086;2023-07-09T01:06:05;10.48;;;4.97;;
3321;SDS011;1673;51.388;7.086;2023-07-09T01:08:35;14.07;;;5.60;;
3321;SDS011;1673;51.388;7.086;2023-07-09T01:11:14;12.00;;;6.03;;
3321;SDS011;1673;51.388;7.086;2023-07-09T01:13:51;10.00;;;4.93;;
3321;SDS011;1673;51.388;7.086;2023-07-09T01:16:23;12.97;;;5.70;;
3321;SDS011;1673;51.388;7.086;2023-07-09T01:18:55;10.88;;;5.25;;
3321;SDS011;1673;51.388;7.086;2023-07-09T01:21:30;11.95;;;5.55;;
3321;SDS011;1673;51.388;7.086;2023-07-09T01:24:10;16.58;;;5.60;;
3321;SDS011;1673;51.388;7.086;2023-07-09T01:26:41;11.40;;;5.03;;
3321;SDS011;1673;51.388;7.086;2023-07-09T01:29:11;12.50;;;5.93;;
3321;SDS011;1673;51.388;7.086;2023-07-09T01:31:41;12.32;;;5.80;;
3321;SDS011;1673;51.388;7.086;2023-07-09T01:34:11;11.10;;;5.65;;
3321;SDS011;1673;51.388;7.086;2023-07-09T01:36:45;10.85;;;5.20;;
3321;SDS011;1673;51.388;7.086;2023-07-09T01:39:15;13.30;;;6.10;;
3321;SDS011;1673;51.388;7.086;2023-07-09T01:41:45;12.10;;;5.65;;
3321;SDS011;1673;51.388;7.086;2023-07-09T01:44:15;10.27;;;5.35;;
3321;SDS011;1673;51.388;7.086;2023-07-09T01:46:45;12.30;;;5.55;;
3321;SDS011;1673;51.388;7.086;2023-07-09T01:49:15;14.25;;;5.72;;
3321;SDS011;1673;51.388;7.086;2023-07-09T01:51:50;11.60;;;5.90;;
3321;SDS011;1673;51.388;7.086;2023-07-09T01:54:21;10.20;;;5.40;;
3321;SDS011;1673;51.388;7.086;2023-07-09T01:56:51;13.40;;;6.50;;
3321;SDS011;1673;51.388;7.086;2023-07-09T01:59:22;11.02;;;5.63;;
3321;SDS011;1673;51.388;7.086;2023-07-09T02:01:53;12.70;;;5.57;;
3321;SDS011;1673;51.388;7.086;2023-07-09T02:04:24;11.48;;;6.05;;
3321;SDS011;1673;51.388;7.086;2023-07-09T02:06:57;11.80;;;5.40;;
3321;SDS011;1673;51.388;7.086;2023-07-09T02:09:27;11.02;;;5.65;;
3321;SDS011;1673;51.388;7.086;2023-07-09T02:11:57;12.85;;;5.70;;
3321;SDS011;1673;51.388;7.086;2023-07-09T02:14:29;10.30;;;5.80;;
3321;SDS011;1673;51.388;7.086;2023-07-09T02:16:59;15.00;;;5.70;;
3321;SDS011;1673;51.388;7.086;2023-07-09T02:19:29;12.75;;;6.13;;
3321;SDS011;1673;51.388;7.086;2023-07-09T02:22:02;14.45;;;5.47;;
3321;SDS011;1673;51.388;7.086;2023-07-09T02:24:32;12.10;;;6.28;;
3321;SDS011;1673;51.388;7.086;2023-07-09T02:27:03;12.57;;;6.22;;
3321;SDS011;1673;51.388;7.086;2023-07-09T02:29:37;12.10;;;5.38;;
3321;SDS011;1673;51.388;7.086;2023-07-09T02:32:07;12.35;;;5.93;;
3321;SDS011;1673;51.388;7.086;2023-07-09T02:34:37;11.77;;;6.50;;
3321;SDS011;1673;51.388;7.086;2023-07-09T02:37:10;11.68;;;5.60;;
3321;SDS011;1673;51.388;7.086;2023-07-09T02:39:41;12.60;;;5.97;;
3321;SDS011;1673;51.388;7.086;2023-07-09T02:42:12;16.73;;;6.45;;
3321;SDS011;1673;51.388;7.086;2023-07-09T02:44:43;10.90;;;5.93;;
3321;SDS011;1673;51.388;7.086;2023-07-09T02:47:14;12.00;;;5.28;;
3321;SDS011;1673;51.388;7.086;2023-07-09T02:49:44;12.57;;;6.70;;
3321;SDS011;1673;51.388;7.086;2023-07-09T02:52:17;11.57;;;5.90;;
3321;SDS011;1673;51.388;7.086;2023-07-09T02:54:47;12.52;;;5.60;;
3321;SDS011;1673;51.388;7.086;2023-07-09T02:57:17;14.57;;;6.47;;
3321;SDS011;1673;51.388;7.086;2023-07-09T02:59:47;11.05;;;5.70;;
3321;SDS011;1673;51.388;7.086;2023-07-09T03:02:17;14.13;;;6.00;;
3321;SDS011;1673;51.388;7.086;2023-07-09T03:04:47;14.55;;;6.40;;
3321;SDS011;1673;51.388;7.086;2023-07-09T03:07:20;14.07;;;6.10;;
3321;SDS011;1673;51.388;7.086;2023-07-09T03:09:49;13.25;;;6.20;;
3321;SDS011;1673;51.388;7.086;2023-07-09T03:12:19;12.70;;;6.00;;
3321;SDS011;1673;51.388;7.086;2023-07-09T03:14:50;14.32;;;6.60;;
3321;SDS011;1673;51.388;7.086;2023-07-09T03:17:21;13.15;;;6.45;;
3321;SDS011;1673;51.388;7.086;2023-07-09T03:19:52;12.52;;;5.80;;
3321;SDS011;1673;51.388;7.086;2023-07-09T03:22:26;14.47;;;5.97;;
3321;SDS011;1673;51.388;7.086;2023-07-09T03:24:56;12.82;;;5.60;;
3321;SDS011;1673;51.388;7.086;2023-07-09T03:27:26;11.70;;;5.78;;
3321;SDS011;1673;51.388;7.086;2023-07-09T03:29:56;11.82;;;6.25;;
3321;SDS011;1673;51.388;7.086;2023-07-09T03:32:27;12.10;;;6.10;;
3321;SDS011;1673;51.388;7.086;2023-07-09T03:34:57;15.50;;;6.90;;
3321;SDS011;1673;51.388;7.086;2023-07-09T03:37:29;10.13;;;5.70;;
3321;SDS011;1673;51.388;7.086;2023-07-09T03:39:59;12.20;;;6.28;;
3321;SDS011;1673;51.388;7.086;2023-07-09T03:42:31;14.52;;;5.80;;
3321;SDS011;1673;51.388;7.086;2023-07-09T03:45:00;13.32;;;6.65;;
3321;SDS011;1673;51.388;7.086;2023-07-09T03:47:30;14.45;;;6.38;;
3321;SDS011;1673;51.388;7.086;2023-07-09T03:50:00;12.65;;;6.15;;
3321;SDS011;1673;51.388;7.086;2023-07-09T03:52:33;12.32;;;6.30;;
3321;SDS011;1673;51.388;7.086;2023-07-09T03:55:03;13.52;;;6.05;;
3321;SDS011;1673;51.388;7.086;2023-07-09T03:57:34;15.07;;;6.33;;
3321;SDS011;1673;51.388;7.086;2023-07-09T04:00:05;12.13;;;6.47;;
3321;SDS011;1673;51.388;7.086;2023-07-09T04:02:43;13.57;;;6.20;;
3321;SDS011;1673;51.388;7.086;2023-07-09T04:05:13;15.32;;;5.85;;
3321;SDS011;1673;51.388;7.086;2023-07-09T04:07:45;15.02;;;6.70;;
3321;SDS011;1673;51.388;7.086;2023-07-09T04:10:15;12.43;;;5.75;;
3321;SDS011;1673;51.388;7.086;2023-07-09T04:12:45;16.08;;;6.70;;
3321;SDS011;1673;51.388;7.086;2023-07-09T04:15:15;14.02;;;6.57;;
3321;SDS011;1673;51.388;7.086;2023-07-09T04:17:45;13.00;;;6.25;;
3321;SDS011;1673;51.388;7.086;2023-07-09T04:20:15;14.20;;;5.93;;
3321;SDS011;1673;51.388;7.086;2023-07-09T04:22:48;14.40;;;6.63;;
3321;SDS011;1673;51.388;7.086;2023-07-09T04:25:18;11.53;;;5.70;;
3321;SDS011;1673;51.388;7.086;2023-07-09T04:27:48;13.20;;;6.55;;
3321;SDS011;1673;51.388;7.086;2023-07-09T04:30:18;14.73;;;6.53;;
3321;SDS011;1673;51.388;7.086;2023-07-09T04:32:48;17.00;;;6.13;;
3321;SDS011;1673;51.388;7.086;2023-07-09T04:35:18;12.05;;;6.35;;
3321;SDS011;1673;51.388;7.086;2023-07-09T04:37:51;11.30;;;6.00;;
3321;SDS011;1673;51.388;7.086;2023-07-09T04:40:20;11.00;;;6.00;;
3321;SDS011;1673;51.388;7.086;2023-07-09T04:42:51;13.93;;;6.45;;
3321;SDS011;1673;51.388;7.086;2023-07-09T04:45:21;15.57;;;6.53;;
3321;SDS011;1673;51.388;7.086;2023-07-09T04:47:50;11.50;;;6.00;;
3321;SDS011;1673;51.388;7.086;2023-07-09T04:50:21;15.30;;;6.70;;
3321;SDS011;1673;51.388;7.086;2023-07-09T04:52:54;13.70;;;6.80;;
3321;SDS011;1673;51.388;7.086;2023-07-09T04:55:24;16.50;;;6.53;;
3321;SDS011;1673;51.388;7.086;2023-07-09T04:57:54;13.35;;;5.82;;
3321;SDS011;1673;51.388;7.086;2023-07-09T05:00:24;12.50;;;6.07;;
3321;SDS011;1673;51.388;7.086;2023-07-09T05:02:54;14.52;;;5.80;;
3321;SDS011;1673;51.388;7.086;2023-07-09T05:05:24;12.90;;;6.20;;
3321;SDS011;1673;51.388;7.086;2023-07-09T05:07:56;12.52;;;5.93;;
3321;SDS011;1673;51.388;7.086;2023-07-09T05:10:26;17.40;;;7.10;;
3321;SDS011;1673;51.388;7.086;2023-07-09T05:12:56;13.13;;;6.60;;
3321;SDS011;1673;51.388;7.086;2023-07-09T05:15:26;12.63;;;6.17;;
3321;SDS011;1673;51.388;7.086;2023-07-09T05:17:56;12.98;;;6.18;;
3321;SDS011;1673;51.388;7.086;2023-07-09T05:20:26;13.80;;;5.80;;
3321;SDS011;1673;51.388;7.086;2023-07-09T05:22:58;14.25;;;6.10;;
3321;SDS011;1673;51.388;7.086;2023-07-09T05:25:29;15.50;;;6.68;;
3321;SDS011;1673;51.388;7.086;2023-07-09T05:27:59;13.30;;;6.15;;
3321;SDS011;1673;51.388;7.086;2023-07-09T05:30:28;14.27;;;6.93;;
3321;SDS011;1673;51.388;7.086;2023-07-09T05:32:58;12.05;;;6.20;;
3321;SDS011;1673;51.388;7.086;2023-07-09T05:35:28;13.38;;;6.80;;
3321;SDS011;1673;51.388;7.086;2023-07-09T05:38:01;12.38;;;6.68;;
3321;SDS011;1673;51.388;7.086;2023-07-09T05:40:30;12.90;;;6.80;;
3321;SDS011;1673;51.388;7.086;2023-07-09T05:43:00;15.10;;;6.97;;
3321;SDS011;1673;51.388;7.086;2023-07-09T05:45:30;12.35;;;6.50;;
3321;SDS011;1673;51.388;7.086;2023-07-09T05:48:01;11.40;;;6.40;;
3321;SDS011;1673;51.388;7.086;2023-07-09T05:50:32;12.93;;;6.63;;
3321;SDS011;1673;51.388;7.086;2023-07-09T05:53:05;16.45;;;6.55;;
3321;SDS011;1673;51.388;7.086;2023-07-09T05:55:35;13.87;;;6.10;;
3321;SDS011;1673;51.388;7.086;2023-07-09T05:58:04;14.55;;;6.97;;
3321;SDS011;1673;51.388;7.086;2023-07-09T06:00:34;12.80;;;6.40;;
3321;SDS011;1673;51.388;7.086;2023-07-09T06:03:08;18.23;;;6.68;;
3321;SDS011;1673;51.388;7.086;2023-07-09T06:05:38;13.65;;;6.65;;
3321;SDS011;1673;51.388;7.086;2023-07-09T06:08:10;14.75;;;6.65;;
3321;SDS011;1673;51.388;7.086;2023-07-09T06:10:49;13.77;;;6.95;;
3321;SDS011;1673;51.388;7.086;2023-07-09T06:13:20;15.33;;;7.50;;
3321;SDS011;1673;51.388;7.086;2023-07-09T06:15:50;14.45;;;6.95;;
3321;SDS011;1673;51.388;7.086;2023-07-09T06:18:23;15.48;;;6.85;;
3321;SDS011;1673;51.388;7.086;2023-07-09T06:20:56;13.70;;;6.30;;
3321;SDS011;1673;51.388;7.086;2023-07-09T06:23:30;16.67;;;6.70;;
3321;SDS011;1673;51.388;7.086;2023-07-09T06:26:00;17.93;;;7.77;;
3321;SDS011;1673;51.388;7.086;2023-07-09T06:28:30;13.07;;;6.97;;
3321;SDS011;1673;51.388;7.086;2023-07-09T06:31:00;15.45;;;6.57;;
3321;SDS011;1673;51.388;7.086;2023-07-09T06:33:30;12.68;;;6.63;;
3321;SDS011;1673;51.388;7.086;2023-07-09T06:36:00;15.27;;;7.53;;
3321;SDS011;1673;51.388;7.086;2023-07-09T06:38:34;20.17;;;6.50;;
3321;SDS011;1673;51.388;7.086;2023-07-09T06:41:04;15.02;;;6.75;;
3321;SDS011;1673;51.388;7.086;2023-07-09T06:43:34;13.43;;;6.78;;
3321;SDS011;1673;51.388;7.086;2023-07-09T06:46:05;13.10;;;6.88;;
3321;SDS011;1673;51.388;7.086;2023-07-09T06:48:38;16.50;;;7.07;;
3321;SDS011;1673;51.388;7.086;2023-07-09T06:51:08;14.70;;;6.35;;
3321;SDS011;1673;51.388;7.086;2023-07-09T06:53:40;14.90;;;6.60;;
3321;SDS011;1673;51.388;7.086;2023-07-09T06:56:14;15.35;;;7.15;;
3321;SDS011;1673;51.388;7.086;2023-07-09T06:58:45;12.98;;;6.70;;
3321;SDS011;1673;51.388;7.086;2023-07-09T07:01:15;12.65;;;7.07;;
3321;SDS011;1673;51.388;7.086;2023-07-09T07:03:47;13.05;;;6.05;;
3321;SDS011;1673;51.388;7.086;2023-07-09T07:06:17;15.95;;;6.72;;
3321;SDS011;1673;51.388;7.086;2023-07-09T07:08:50;12.67;;;6.30;;
3321;SDS011;1673;51.388;7.086;2023-07-09T07:11:20;11.80;;;6.32;;
3321;SDS011;1673;51.388;7.086;2023-07-09T07:13:49;12.48;;;6.93;;
3321;SDS011;1673;51.388;7.086;2023-07-09T07:16:21;13.15;;;6.50;;
3321;SDS011;1673;51.388;7.086;2023-07-09T07:18:51;13.57;;;6.70;;
3321;SDS011;1673;51.388;7.086;2023-07-09T07:21:21;14.77;;;6.73;;
3321;SDS011;1673;51.388;7.086;2023-07-09T07:23:53;12.35;;;6.60;;
3321;SDS011;1673;51.388;7.086;2023-07-09T07:26:24;15.45;;;7.22;;
3321;SDS011;1673;51.388;7.086;2023-07-09T07:28:54;12.10;;;7.10;;
3321;SDS011;1673;51.388;7.086;2023-07-09T07:31:23;12.75;;;7.22;;
3321;SDS011;1673;51.388;7.086;2023-07-09T07:33:54;11.73;;;6.25;;
3321;SDS011;1673;51.388;7.086;2023-07-09T07:36:24;13.45;;;7.10;;
3321;SDS011;1673;51.388;7.086;2023-07-09T07:39:00;13.93;;;7.10;;
3321;SDS011;1673;51.388;7.086;2023-07-09T07:41:30;19.00;;;7.72;;
3321;SDS011;1673;51.388;7.086;2023-07-09T07:44:00;16.77;;;7.10;;
3321;SDS011;1673;51.388;7.086;2023-07-09T07:46:32;16.48;;;6.78;;
3321;SDS011;1673;51.388;7.086;2023-07-09T07:49:02;13.45;;;6.60;;
3321;SDS011;1673;51.388;7.086;2023-07-09T07:51:32;12.87;;;6.80;;
3321;SDS011;1673;51.388;7.086;2023-07-09T07:54:04;14.65;;;6.65;;
3321;SDS011;1673;51.388;7.086;2023-07-09T07:56:35;14.05;;;7.43;;
3321;SDS011;1673;51.388;7.086;2023-07-09T07:59:06;13.48;;;6.40;;
3321;SDS011;1673;51.388;7.086;2023-07-09T08:01:36;16.23;;;7.35;;
3321;SDS011;1673;51.388;7.086;2023-07-09T08:04:06;12.65;;;7.20;;
3321;SDS011;1673;51.388;7.086;2023-07-09T08:06:36;12.00;;;6.60;;
3321;SDS011;1673;51.388;7.086;2023-07-09T08:09:09;13.30;;;6.90;;
3321;SDS011;1673;51.388;7.086;2023-07-09T08:11:39;13.93;;;6.70;;
3321;SDS011;1673;51.388;7.086;2023-07-09T08:14:09;13.40;;;6.10;;
3321;SDS011;1673;51.388;7.086;2023-07-09T08:16:39;14.85;;;6.85;;
3321;SDS011;1673;51.388;7.086;2023-07-09T08:19:09;15.20;;;7.07;;
3321;SDS011;1673;51.388;7.086;2023-07-09T08:21:39;13.15;;;7.00;;
3321;SDS011;1673;51.388;7.086;2023-07-09T08:24:12;16.05;;;7.90;;
3321;SDS011;1673;51.388;7.086;2023-07-09T08:26:42;11.30;;;6.50;;
3321;SDS011;1673;51.388;7.086;2023-07-09T08:29:12;15.52;;;6.97;;
3321;SDS011;1673;51.388;7.086;2023-07-09T08:31:42;14.63;;;6.95;;
3321;SDS011;1673;51.388;7.086;2023-07-09T08:34:12;14.90;;;7.05;;
3321;SDS011;1673;51.388;7.086;2023-07-09T08:36:42;15.40;;;7.23;;
3321;SDS011;1673;51.388;7.086;2023-07-09T08:39:14;18.42;;;7.47;;
3321;SDS011;1673;51.388;7.086;2023-07-09T08:41:45;13.57;;;7.00;;
3321;SDS011;1673;51.388;7.086;2023-07-09T08:44:30;16.13;;;7.90;;
3321;SDS011;1673;51.388;7.086;2023-07-09T08:47:06;14.32;;;7.20;;
3321;SDS011;1673;51.388;7.086;2023-07-09T08:49:38;12.55;;;7.10;;
3321;SDS011;1673;51.388;7.086;2023-07-09T08:52:15;20.15;;;7.35;;
3321;SDS011;1673;51.388;7.086;2023-07-09T09:24:37;14.48;;;6.25;;
3321;SDS011;1673;51.388;7.086;2023-07-09T09:27:23;14.65;;;5.85;;
3321;SDS011;1673;51.388;7.086;2023-07-09T09:29:54;12.45;;;5.45;;
3321;SDS011;1673;51.388;7.086;2023-07-09T09:32:26;11.20;;;5.85;;
3321;SDS011;1673;51.388;7.086;2023-07-09T09:34:57;14.25;;;5.75;;
3321;SDS011;1673;51.388;7.086;2023-07-09T09:37:27;19.03;;;5.13;;
3321;SDS011;1673;51.388;7.086;2023-07-09T09:40:00;14.13;;;5.70;;
3321;SDS011;1673;51.388;7.086;2023-07-09T09:42:34;11.73;;;5.47;;
3321;SDS011;1673;51.388;7.086;2023-07-09T09:45:08;13.60;;;5.40;;
3321;SDS011;1673;51.388;7.086;2023-07-09T09:47:41;11.98;;;5.03;;
3321;SDS011;1673;51.388;7.086;2023-07-09T09:50:13;9.38;;;5.40;;
3321;SDS011;1673;51.388;7.086;2023-07-09T09:52:44;15.45;;;5.20;;
3321;SDS011;1673;51.388;7.086;2023-07-09T09:55:19;9.40;;;4.88;;
3321;SDS011;1673;51.388;7.086;2023-07-09T09:57:52;11.15;;;4.82;;
3321;SDS011;1673;51.388;7.086;2023-07-09T10:00:24;11.00;;;5.03;;
3321;SDS011;1673;51.388;7.086;2023-07-09T10:02:59;12.70;;;5.18;;
3321;SDS011;1673;51.388;7.086;2023-07-09T10:05:36;11.30;;;4.85;;
3321;SDS011;1673;51.388;7.086;2023-07-09T10:08:12;10.02;;;4.80;;
3321;SDS011;1673;51.388;7.086;2023-07-09T10:10:48;10.10;;;4.90;;
3321;SDS011;1673;51.388;7.086;2023-07-09T10:13:23;11.05;;;4.47;;
3321;SDS011;1673;51.388;7.086;2023-07-09T10:15:59;9.52;;;4.68;;
3321;SDS011;1673;51.388;7.086;2023-07-09T10:18:37;8.83;;;4.37;;
3321;SDS011;1673;51.388;7.086;2023-07-09T10:21:18;12.02;;;5.22;;
3321;SDS011;1673;51.388;7.086;2023-07-09T10:23:53;10.90;;;4.50;;
3321;SDS011;1673;51.388;7.086;2023-07-09T10:26:34;9.70;;;4.50;;
3321;SDS011;1673;51.388;7.086;2023-07-09T10:29:17;11.75;;;4.80;;
3321;SDS011;1673;51.388;7.086;2023-07-09T10:31:55;12.00;;;4.80;;
3321;SDS011;1673;51.388;7.086;2023-07-09T10:34:31;11.07;;;4.43;;
3321;SDS011;1673;51.388;7.086;2023-07-09T10:37:14;15.15;;;5.00;;
3321;SDS011;1673;51.388;7.086;2023-07-09T10:39:52;8.93;;;4.60;;
3321;SDS011;1673;51.388;7.086;2023-07-09T10:42:29;8.88;;;4.40;;
3321;SDS011;1673;51.388;7.086;2023-07-09T10:45:01;9.95;;;3.95;;
3321;SDS011;1673;51.388;7.086;2023-07-09T10:47:34;7.57;;;4.10;;
3321;SDS011;1673;51.388;7.086;2023-07-09T10:50:06;9.02;;;4.13;;
3321;SDS011;1673;51.388;7.086;2023-07-09T10:52:42;12.88;;;4.65;;
3321;SDS011;1673;51.388;7.086;2023-07-09T10:55:15;7.03;;;3.55;;
3321;SDS011;1673;51.388;7.086;2023-07-09T10:57:51;9.18;;;4.38;;
3321;SDS011;1673;51.388;7.086;2023-07-09T11:00:30;9.30;;;4.50;;
3321;SDS011;1673;51.388;7.086;2023-07-09T11:03:03;9.85;;;4.53;;
3321;SDS011;1673;51.388;7.086;2023-07-09T11:05:38;10.30;;;4.70;;
3321;SDS011;1673;51.388;7.086;2023-07-09T11:08:09;10.70;;;4.10;;
3321;SDS011;1673;51.388;7.086;2023-07-09T11:10:44;8.77;;;4.43;;
3321;SDS011;1673;51.388;7.086;2023-07-09T11:13:21;11.90;;;4.97;;
3321;SDS011;1673;51.388;7.086;2023-07-09T11:16:13;11.60;;;4.90;;
3321;SDS011;1673;51.388;7.086;2023-07-09T11:18:52;10.00;;;4.10;;
3321;SDS011;1673;51.388;7.086;2023-07-09T11:21:24;11.30;;;4.30;;
3321;SDS011;1673;51.388;7.086;2023-07-09T11:23:56;9.50;;;4.32;;
3321;SDS011;1673;51.388;7.086;2023-07-09T11:26:28;10.20;;;4.30;;
3321;SDS011;1673;51.388;7.086;2023-07-09T11:29:13;7.85;;;4.40;;
3321;SDS011;1673;51.388;7.086;2023-07-09T11:31:45;8.82;;;4.60;;
3321;SDS011;1673;51.388;7.086;2023-07-09T11:34:17;10.57;;;4.40;;
3321;SDS011;1673;51.388;7.086;2023-07-09T11:36:48;9.40;;;4.40;;
3321;SDS011;1673;51.388;7.086;2023-07-09T11:39:20;10.80;;;4.30;;
3321;SDS011;1673;51.388;7.086;2023-07-09T11:41:51;10.70;;;4.55;;
3321;SDS011;1673;51.388;7.086;2023-07-09T11:44:24;9.27;;;4.40;;
3321;SDS011;1673;51.388;7.086;2023-07-09T11:46:59;10.75;;;4.20;;
3321;SDS011;1673;51.388;7.086;2023-07-09T11:49:51;12.73;;;4.72;;
3321;SDS011;1673;51.388;7.086;2023-07-09T11:52:25;9.00;;;4.20;;
3321;SDS011;1673;51.388;7.086;2023-07-09T11:55:01;9.65;;;4.50;;
3321;SDS011;1673;51.388;7.086;2023-07-09T12:00:04;10.63;;;4.30;;
3321;SDS011;1673;51.388;7.086;2023-07-09T12:02:38;10.48;;;4.20;;
3321;SDS011;1673;51.388;7.086;2023-07-09T12:05:08;10.57;;;3.83;;
3321;SDS011;1673;51.388;7.086;2023-07-09T12:07:43;9.77;;;4.18;;
3321;SDS011;1673;51.388;7.086;2023-07-09T12:10:17;11.98;;;4.50;;
3321;SDS011;1673;51.388;7.086;2023-07-09T12:12:53;8.93;;;3.92;;
3321;SDS011;1673;51.388;7.086;2023-07-09T12:15:27;9.35;;;3.90;;
3321;SDS011;1673;51.388;7.086;2023-07-09T12:18:01;8.55;;;3.90;;
3321;SDS011;1673;51.388;7.086;2023-07-09T12:20:34;9.55;;;4.20;;
3321;SDS011;1673;51.388;7.086;2023-07-09T12:23:11;7.93;;;4.25;;
3321;SDS011;1673;51.388;7.086;2023-07-09T12:25:46;8.60;;;4.20;;
3321;SDS011;1673;51.388;7.086;2023-07-09T12:28:17;10.35;;;4.22;;
3321;SDS011;1673;51.388;7.086;2023-07-09T12:30:52;10.73;;;4.17;;
3321;SDS011;1673;51.388;7.086;2023-07-09T12:33:23;9.23;;;4.40;;
3321;SDS011;1673;51.388;7.086;2023-07-09T12:35:55;9.23;;;4.40;;
3321;SDS011;1673;51.388;7.086;2023-07-09T12:38:26;10.00;;;4.25;;
3321;SDS011;1673;51.388;7.086;2023-07-09T12:40:59;8.20;;;4.60;;
3321;SDS011;1673;51.388;7.086;2023-07-09T12:43:31;8.45;;;4.40;;
3321;SDS011;1673;51.388;7.086;2023-07-09T12:46:03;11.40;;;4.68;;
3321;SDS011;1673;51.388;7.086;2023-07-09T12:48:34;8.20;;;4.57;;
3321;SDS011;1673;51.388;7.086;2023-07-09T12:51:06;12.10;;;4.65;;
3321;SDS011;1673;51.388;7.086;2023-07-09T12:53:37;10.37;;;4.00;;
3321;SDS011;1673;51.388;7.086;2023-07-09T12:56:11;10.77;;;4.83;;
3321;SDS011;1673;51.388;7.086;2023-07-09T12:58:43;9.90;;;4.63;;
3321;SDS011;1673;51.388;7.086;2023-07-09T13:01:16;10.60;;;4.63;;
3321;SDS011;1673;51.388;7.086;2023-07-09T13:03:52;11.43;;;4.65;;
3321;SDS011;1673;51.388;7.086;2023-07-09T13:06:28;10.33;;;5.20;;
3321;SDS011;1673;51.388;7.086;2023-07-09T13:08:59;10.32;;;4.60;;
3321;SDS011;1673;51.388;7.086;2023-07-09T13:11:32;15.43;;;5.10;;
3321;SDS011;1673;51.388;7.086;2023-07-09T13:14:04;10.68;;;5.00;;
3321;SDS011;1673;51.388;7.086;2023-07-09T13:16:40;10.40;;;4.60;;
3321;SDS011;1673;51.388;7.086;2023-07-09T13:19:12;9.13;;;4.83;;
3321;SDS011;1673;51.388;7.086;2023-07-09T13:21:42;9.90;;;5.05;;
3321;SDS011;1673;51.388;7.086;2023-07-09T13:24:13;10.85;;;5.10;;
3321;SDS011;1673;51.388;7.086;2023-07-09T13:26:44;8.63;;;4.20;;
3321;SDS011;1673;51.388;7.086;2023-07-09T13:29:14;9.30;;;4.90;;
3321;SDS011;1673;51.388;7.086;2023-07-09T13:31:47;12.33;;;5.00;;
3321;SDS011;1673;51.388;7.086;2023-07-09T13:34:19;11.80;;;5.77;;
3321;SDS011;1673;51.388;7.086;2023-07-09T13:36:49;12.13;;;5.80;;
3321;SDS011;1673;51.388;7.086;2023-07-09T13:39:20;11.80;;;5.10;;
3321;SDS011;1673;51.388;7.086;2023-07-09T13:41:54;8.68;;;4.60;;
3321;SDS011;1673;51.388;7.086;2023-07-09T13:44:25;11.93;;;5.00;;
3321;SDS011;1673;51.388;7.086;2023-07-09T13:46:59;10.50;;;5.77;;
3321;SDS011;1673;51.388;7.086;2023-07-09T13:49:29;8.60;;;5.30;;
3321;SDS011;1673;51.388;7.086;2023-07-09T13:52:01;11.00;;;5.00;;
3321;SDS011;1673;51.388;7.086;2023-07-09T13:54:32;9.05;;;4.75;;
3321;SDS011;1673;51.388;7.086;2023-07-09T13:57:05;9.45;;;5.00;;
3321;SDS011;1673;51.388;7.086;2023-07-09T13:59:36;10.73;;;5.75;;
3321;SDS011;1673;51.388;7.086;2023-07-09T14:02:13;10.70;;;5.30;;
3321;SDS011;1673;51.388;7.086;2023-07-09T14:04:48;11.00;;;5.43;;
3321;SDS011;1673;51.388;7.086;2023-07-09T14:07:30;11.87;;;5.27;;
3321;SDS011;1673;51.388;7.086;2023-07-09T14:10:01;10.48;;;4.82;;
3321;SDS011;1673;51.388;7.086;2023-07-09T14:12:34;12.73;;;5.38;;
3321;SDS011;1673;51.388;7.086;2023-07-09T14:15:10;10.50;;;5.70;;
3321;SDS011;1673;51.388;7.086;2023-07-09T14:17:45;11.25;;;5.22;;
3321;SDS011;1673;51.388;7.086;2023-07-09T14:20:16;12.60;;;5.27;;
3321;SDS011;1673;51.388;7.086;2023-07-09T14:22:48;10.65;;;5.28;;
3321;SDS011;1673;51.388;7.086;2023-07-09T14:25:19;10.82;;;5.40;;
3321;SDS011;1673;51.388;7.086;2023-07-09T14:27:50;12.57;;;6.45;;
3321;SDS011;1673;51.388;7.086;2023-07-09T14:30:24;11.95;;;6.10;;
3321;SDS011;1673;51.388;7.086;2023-07-09T14:32:58;9.55;;;4.85;;
3321;SDS011;1673;51.388;7.086;2023-07-09T14:35:28;15.02;;;6.05;;
3321;SDS011;1673;51.388;7.086;2023-07-09T14:37:58;16.70;;;5.78;;
3321;SDS011;1673;51.388;7.086;2023-07-09T14:40:29;11.85;;;5.28;;
3321;SDS011;1673;51.388;7.086;2023-07-09T14:42:59;14.80;;;6.07;;
3321;SDS011;1673;51.388;7.086;2023-07-09T14:45:29;18.27;;;7.05;;
3321;SDS011;1673;51.388;7.086;2023-07-09T14:48:04;18.20;;;7.63;;
3321;SDS011;1673;51.388;7.086;2023-07-09T14:50:38;17.63;;;7.40;;
3321;SDS011;1673;51.388;7.086;2023-07-09T14:53:11;20.88;;;7.22;;
3321;SDS011;1673;51.388;7.086;2023-07-09T14:55:42;25.98;;;7.90;;
3321;SDS011;1673;51.388;7.086;2023-07-09T14:58:14;16.58;;;7.28;;
3321;SDS011;1673;51.388;7.086;2023-07-09T15:00:46;13.73;;;6.50;;
3321;SDS011;1673;51.388;7.086;2023-07-09T15:03:21;15.90;;;7.07;;
3321;SDS011;1673;51.388;7.086;2023-07-09T15:05:52;16.88;;;6.85;;
3321;SDS011;1673;51.388;7.086;2023-07-09T15:08:24;12.32;;;6.65;;
3321;SDS011;1673;51.388;7.086;2023-07-09T15:10:54;18.73;;;7.57;;
3321;SDS011;1673;51.388;7.086;2023-07-09T15:13:26;19.23;;;7.30;;
3321;SDS011;1673;51.388;7.086;2023-07-09T15:15:58;25.88;;;7.78;;
3321;SDS011;1673;51.388;7.086;2023-07-09T15:18:31;16.70;;;7.60;;
3321;SDS011;1673;51.388;7.086;2023-07-09T15:21:03;14.50;;;8.13;;
3321;SDS011;1673;51.388;7.086;2023-07-09T15:23:36;21.52;;;7.47;;
3321;SDS011;1673;51.388;7.086;2023-07-09T15:26:12;15.98;;;7.35;;
3321;SDS011;1673;51.388;7.086;2023-07-09T15:28:43;17.42;;;7.97;;
3321;SDS011;1673;51.388;7.086;2023-07-09T15:31:16;16.00;;;8.20;;
3321;SDS011;1673;51.388;7.086;2023-07-09T15:33:48;22.67;;;9.80;;
3321;SDS011;1673;51.388;7.086;2023-07-09T15:36:18;20.38;;;9.95;;
3321;SDS011;1673;51.388;7.086;2023-07-09T15:38:48;22.33;;;9.80;;
3321;SDS011;1673;51.388;7.086;2023-07-09T15:41:18;18.00;;;9.13;;
3321;SDS011;1673;51.388;7.086;2023-07-09T15:43:48;16.00;;;8.73;;
3321;SDS011;1673;51.388;7.086;2023-07-09T15:46:19;19.58;;;9.15;;
3321;SDS011;1673;51.388;7.086;2023-07-09T15:48:53;17.10;;;9.23;;
3321;SDS011;1673;51.388;7.086;2023-07-09T15:51:23;20.40;;;9.30;;
3321;SDS011;1673;51.388;7.086;2023-07-09T15:53:53;16.05;;;9.00;;
3321;SDS011;1673;51.388;7.086;2023-07-09T15:56:25;24.83;;;9.52;;
3321;SDS011;1673;51.388;7.086;2023-07-09T15:58:57;20.20;;;9.65;;
3321;SDS011;1673;51.388;7.086;2023-07-09T16:01:28;18.27;;;9.50;;
3321;SDS011;1673;51.388;7.086;2023-07-09T16:04:01;17.67;;;9.20;;